createdAt,value
2022-10-17T00:02:26.743Z,99981.50
2022-10-17T00:04:53.992Z,99982.41
2022-10-17T00:07:20.959Z,99985.44
2022-10-17T00:09:47.920Z,99979.38
2022-10-17T00:12:15.178Z,99977.69
2022-10-17T00:14:42.291Z,99974.34
2022-10-17T00:17:09.313Z,99979.41
2022-10-17T00:19:36.591Z,99975.22
2022-10-17T00:22:03.589Z,99976.38
2022-10-17T00:24:31.644Z,99970.41
2022-10-17T00:26:58.963Z,99979.00
2022-10-17T00:29:26.049Z,99971.84
2022-10-17T00:31:57.238Z,99973.53
2022-10-17T00:34:24.975Z,99976.59
2022-10-17T00:36:52.313Z,99976.81
2022-10-17T00:39:19.367Z,99980.91
2022-10-17T00:41:47.477Z,99984.44
2022-10-17T00:44:29.888Z,99986.25
2022-10-17T00:47:10.525Z,99981.13
2022-10-17T00:49:38.819Z,99982.59
2022-10-17T00:52:29.745Z,99983.13
2022-10-17T00:55:13.452Z,99976.19
2022-10-17T00:57:41.548Z,99978.81
2022-10-17T01:00:10.518Z,99974.34
2022-10-17T01:02:38.076Z,99971.50
2022-10-17T01:05:06.686Z,99972.09
2022-10-17T01:07:37.217Z,99970.97
2022-10-17T01:10:05.665Z,99973.78
2022-10-17T01:13:22.934Z,99971.28
2022-10-17T01:15:57.198Z,99976.94
2022-10-17T01:18:41.881Z,99978.28
2022-10-17T01:21:14.748Z,99976.94
2022-10-17T01:24:06.797Z,99968.13
2022-10-17T01:26:39.978Z,99974.41
2022-10-17T01:29:23.901Z,99973.47
2022-10-17T01:32:00.048Z,99972.66
2022-10-17T01:34:39.204Z,99969.81
2022-10-17T01:37:15.700Z,99961.22
2022-10-17T01:39:46.979Z,99966.25
2022-10-17T01:42:38.092Z,99964.78
2022-10-17T01:45:14.932Z,99963.34
2022-10-17T01:47:42.380Z,99964.06
2022-10-17T01:50:14.471Z,99963.72
2022-10-17T01:52:46.630Z,99970.72
2022-10-17T01:55:21.539Z,99969.16
2022-10-17T01:57:51.650Z,99965.59
2022-10-17T02:00:22.049Z,99971.88
2022-10-17T02:02:54.309Z,99974.59
2022-10-17T02:05:25.409Z,99965.19
2022-10-17T02:07:52.681Z,99975.88
2022-10-17T02:10:31.017Z,99974.09
2022-10-17T02:13:07.737Z,99978.28
2022-10-17T02:16:00.090Z,99979.53
2022-10-17T02:19:16.152Z,99973.34
2022-10-17T02:21:58.332Z,99974.81
2022-10-17T02:24:45.611Z,99976.06
2022-10-17T02:27:30.328Z,99974.19
2022-10-17T02:30:11.681Z,99977.31
2022-10-17T02:32:56.192Z,99970.91
2022-10-17T02:35:26.227Z,99982.44
2022-10-17T02:37:53.606Z,99978.34
2022-10-17T02:40:22.130Z,99977.41
2022-10-17T02:42:49.743Z,99973.34
2022-10-17T02:45:17.059Z,99982.75
2022-10-17T02:47:51.457Z,99983.53
2022-10-17T02:50:22.857Z,99991.03
2022-10-17T02:52:56.921Z,99991.34
2022-10-17T02:55:47.928Z,99994.06
2022-10-17T02:58:25.664Z,99996.16
2022-10-17T03:00:53.425Z,99998.88
2022-10-17T03:03:26.183Z,99999.28
2022-10-17T03:05:54.088Z,100008.06
2022-10-17T03:08:22.721Z,99999.16
2022-10-17T03:10:50.140Z,100001.34
2022-10-17T03:13:19.058Z,99998.72
2022-10-17T03:15:46.367Z,99995.59
2022-10-17T03:18:14.068Z,99986.75
2022-10-17T03:20:41.503Z,99996.41
2022-10-17T03:23:08.722Z,99998.25
2022-10-17T03:25:36.199Z,100001.84
2022-10-17T03:28:05.514Z,100006.63
2022-10-17T03:30:33.577Z,100014.59
2022-10-17T03:33:00.845Z,100016.69
2022-10-17T03:35:28.276Z,100015.59
2022-10-17T03:37:56.212Z,100018.72
2022-10-17T03:40:23.558Z,100020.91
2022-10-17T03:42:51.189Z,100017.13
2022-10-17T03:45:18.354Z,100028.38
2022-10-17T03:47:45.752Z,100025.75
2022-10-17T03:50:13.098Z,100035.75
2022-10-17T03:52:48.088Z,100033.13
2022-10-17T03:55:16.145Z,100035.31
2022-10-17T03:57:45.441Z,100038.97
2022-10-17T04:00:13.665Z,100029.00
2022-10-17T04:02:41.241Z,100037.03
2022-10-17T04:05:09.601Z,100039.12
2022-10-17T04:07:37.644Z,100040.44
2022-10-17T04:10:05.681Z,100041.38
2022-10-17T04:12:33.111Z,100039.88
2022-10-17T04:15:00.168Z,100039.72
2022-10-17T04:17:27.483Z,100044.66
2022-10-17T04:19:54.781Z,100039.00
2022-10-17T04:22:22.838Z,100047.75
2022-10-17T04:24:49.841Z,100047.13
2022-10-17T04:27:17.993Z,100050.66
2022-10-17T04:29:45.226Z,100060.28
2022-10-17T04:32:12.842Z,100059.62
2022-10-17T04:34:40.352Z,100059.06
2022-10-17T04:37:07.424Z,100058.31
2022-10-17T04:39:34.620Z,100063.63
2022-10-17T04:42:02.077Z,100062.91
2022-10-17T04:44:30.980Z,100060.47
2022-10-17T04:46:58.144Z,100059.72
2022-10-17T04:49:25.728Z,100057.22
2022-10-17T04:51:53.011Z,100063.91
2022-10-17T04:54:23.916Z,100070.19
2022-10-17T04:56:52.151Z,100060.94
2022-10-17T04:59:19.385Z,100069.78
2022-10-17T05:01:46.805Z,100069.97
2022-10-17T05:04:14.127Z,100077.63
2022-10-17T05:06:41.151Z,100081.19
2022-10-17T05:09:09.744Z,100084.72
2022-10-17T05:11:37.557Z,100088.47
2022-10-17T05:14:04.823Z,100088.37
2022-10-17T05:16:32.565Z,100090.16
2022-10-17T05:19:00.194Z,100090.78
2022-10-17T05:21:29.849Z,100089.78
2022-10-17T05:23:57.400Z,100099.22
2022-10-17T05:26:25.286Z,100099.47
2022-10-17T05:28:53.181Z,100094.50
2022-10-17T05:31:20.859Z,100107.34
2022-10-17T05:33:48.258Z,100104.34
2022-10-17T05:36:15.328Z,100107.94
2022-10-17T05:38:43.806Z,100111.97
2022-10-17T05:41:11.494Z,100119.81
2022-10-17T05:43:38.686Z,100120.34
2022-10-17T05:46:06.604Z,100118.25
2022-10-17T05:48:34.701Z,100124.69
2022-10-17T05:51:06.209Z,100126.72
2022-10-17T05:53:35.279Z,100133.06
2022-10-17T05:56:05.114Z,100140.31
2022-10-17T05:58:52.347Z,100136.91
2022-10-17T06:01:21.391Z,100153.97
2022-10-17T06:03:48.805Z,100148.53
2022-10-17T06:06:16.873Z,100153.59
2022-10-17T06:08:45.449Z,100160.38
2022-10-17T06:11:13.350Z,100166.34
2022-10-17T06:13:40.509Z,100165.81
2022-10-17T06:16:08.603Z,100174.75
2022-10-17T06:18:35.959Z,100172.03
2022-10-17T06:21:12.781Z,100171.50
2022-10-17T06:23:41.513Z,100173.44
2022-10-17T06:26:09.656Z,100176.06
2022-10-17T06:28:37.286Z,100181.94
2022-10-17T06:31:09.445Z,100185.81
2022-10-17T06:33:36.601Z,100183.41
2022-10-17T06:36:05.319Z,100184.59
2022-10-17T06:38:34.480Z,100186.91
2022-10-17T06:41:21.396Z,100191.22
2022-10-17T06:43:52.264Z,100193.94
2022-10-17T06:46:21.126Z,100198.31
2022-10-17T06:48:50.512Z,100204.25
2022-10-17T06:51:18.185Z,100205.78
2022-10-17T06:53:45.404Z,100203.16
2022-10-17T06:56:12.607Z,100202.78
2022-10-17T06:58:40.813Z,100216.31
2022-10-17T07:01:10.898Z,100224.75
2022-10-17T07:03:38.364Z,100218.31
2022-10-17T07:06:06.142Z,100225.25
2022-10-17T07:08:33.585Z,100224.72
2022-10-17T07:11:12.392Z,100221.56
2022-10-17T07:13:39.904Z,100229.75
2022-10-17T07:16:07.675Z,100227.78
2022-10-17T07:18:35.343Z,100232.97
2022-10-17T07:21:03.806Z,100237.88
2022-10-17T07:23:31.508Z,100234.66
2022-10-17T07:26:02.673Z,100235.38
2022-10-17T07:28:30.166Z,100236.94
2022-10-17T07:31:14.882Z,100237.09
2022-10-17T07:33:43.418Z,100243.87
2022-10-17T07:36:10.878Z,100239.63
2022-10-17T07:38:38.261Z,100239.88
2022-10-17T07:41:07.800Z,100237.47
2022-10-17T07:43:36.438Z,100246.31
2022-10-17T07:46:08.396Z,100239.75
2022-10-17T07:48:35.649Z,100240.09
2022-10-17T07:51:04.616Z,100239.59
2022-10-17T07:53:32.278Z,100239.47
2022-10-17T07:55:59.300Z,100237.44
2022-10-17T07:58:26.449Z,100248.59
2022-10-17T08:00:53.881Z,100243.87
2022-10-17T08:03:21.279Z,100242.06
2022-10-17T08:05:48.382Z,100254.25
2022-10-17T08:08:15.370Z,100255.66
2022-10-17T08:10:42.691Z,100259.41
2022-10-17T08:13:09.751Z,100263.44
2022-10-17T08:15:38.075Z,100263.41
2022-10-17T08:18:05.507Z,100255.88
2022-10-17T08:20:32.569Z,100264.72
2022-10-17T08:22:59.563Z,100265.41
2022-10-17T08:25:26.995Z,100272.09
2022-10-17T08:27:54.110Z,100266.38
2022-10-17T08:30:21.287Z,100271.06
2022-10-17T08:32:48.564Z,100271.78
2022-10-17T08:35:15.617Z,100270.16
2022-10-17T08:37:42.663Z,100267.59
2022-10-17T08:40:19.506Z,100273.47
2022-10-17T08:42:49.419Z,100273.19
2022-10-17T08:45:22.471Z,100273.53
2022-10-17T08:47:53.456Z,100273.28
2022-10-17T08:50:43.486Z,100273.03
2022-10-17T08:53:16.208Z,100276.41
2022-10-17T08:55:46.935Z,100267.06
2022-10-17T08:58:22.861Z,100272.09
2022-10-17T09:04:13.995Z,100279.22
2022-10-17T09:06:55.626Z,100275.91
2022-10-17T09:09:30.711Z,100275.66
2022-10-17T09:12:23.981Z,100279.84
2022-10-17T09:15:09.656Z,100289.19
2022-10-17T09:17:53.330Z,100273.00
2022-10-17T09:20:30.290Z,100277.50
2022-10-17T09:23:04.295Z,100280.19
2022-10-17T09:25:49.945Z,100269.41
2022-10-17T09:28:38.290Z,100280.97
2022-10-17T09:31:22.296Z,100282.81
2022-10-17T09:33:55.353Z,100289.25
2022-10-17T09:36:31.300Z,100282.53
2022-10-17T09:39:00.975Z,100284.50
2022-10-17T09:41:49.741Z,100283.81
